createdAt,value
2022-12-29T00:01:58.559Z,99991.97
2022-12-29T00:06:01.433Z,99992.98
2022-12-29T00:10:04.053Z,99991.84
2022-12-29T00:14:26.342Z,99996.04
2022-12-29T00:18:28.361Z,99996.56
2022-12-29T00:22:48.520Z,99993.66
2022-12-29T00:27:15.987Z,99985.75
2022-12-29T00:31:36.685Z,99980.10
2022-12-29T00:35:44.335Z,99976.58
2022-12-29T00:40:04.873Z,99974.24
2022-12-29T00:44:10.791Z,99974.73
2022-12-29T00:48:12.665Z,99972.05
2022-12-29T00:52:14.734Z,99967.39
2022-12-29T00:56:16.646Z,99969.91
2022-12-29T01:00:20.018Z,99974.50
2022-12-29T01:04:24.295Z,99977.98
2022-12-29T01:08:28.606Z,99983.11
2022-12-29T01:12:42.693Z,99975.61
2022-12-29T01:16:46.552Z,99974.98
2022-12-29T01:20:48.927Z,99966.02
2022-12-29T01:24:50.842Z,99967.23
2022-12-29T01:28:52.660Z,99962.48
2022-12-29T01:32:54.614Z,99956.98
2022-12-29T01:36:56.950Z,99956.70
2022-12-29T01:40:58.835Z,99951.33
2022-12-29T01:45:03.545Z,99944.94
2022-12-29T01:49:08.436Z,99937.38
2022-12-29T01:53:16.303Z,99936.31
2022-12-29T01:57:25.651Z,99931.65
2022-12-29T02:01:27.789Z,99920.77
2022-12-29T02:05:41.149Z,99910.66
2022-12-29T02:09:44.733Z,99910.31
2022-12-29T02:13:46.694Z,99911.64
2022-12-29T02:18:16.414Z,99898.98
2022-12-29T02:22:29.517Z,99897.20
2022-12-29T02:26:59.768Z,99889.90
2022-12-29T02:31:06.529Z,99887.26
2022-12-29T02:35:34.784Z,99885.68
2022-12-29T02:39:51.955Z,99885.10
2022-12-29T02:44:13.724Z,99886.38
2022-12-29T02:48:43.962Z,99892.94
2022-12-29T02:53:05.787Z,99884.43
2022-12-29T02:57:32.173Z,99884.60
2022-12-29T03:02:21.492Z,99892.99
2022-12-29T03:07:00.586Z,99890.46
2022-12-29T03:11:31.595Z,99893.53
2022-12-29T03:16:01.715Z,99895.10
2022-12-29T03:20:13.364Z,99897.90
2022-12-29T03:24:20.417Z,99902.60
2022-12-29T03:28:28.283Z,99898.75
2022-12-29T03:32:40.260Z,99901.86
2022-12-29T03:36:52.857Z,99904.92
2022-12-29T03:40:59.675Z,99905.55
2022-12-29T03:45:05.392Z,99907.79
2022-12-29T03:49:07.343Z,99901.11
2022-12-29T03:53:09.237Z,99904.35
2022-12-29T03:57:12.033Z,99903.44
2022-12-29T04:01:37.119Z,99903.63
2022-12-29T04:05:39.183Z,99901.64
2022-12-29T04:09:41.027Z,99894.58
2022-12-29T04:13:44.214Z,99890.17
2022-12-29T04:17:49.697Z,99882.36
2022-12-29T04:21:52.252Z,99874.39
2022-12-29T04:25:54.802Z,99871.48
2022-12-29T04:29:56.742Z,99852.92
2022-12-29T04:34:11.200Z,99822.03
2022-12-29T04:38:14.818Z,99835.29
2022-12-29T04:42:16.975Z,99830.16
2022-12-29T04:46:20.978Z,99822.06
2022-12-29T04:50:28.152Z,99814.56
2022-12-29T04:54:48.587Z,99808.94
2022-12-29T04:58:54.048Z,99813.83
2022-12-29T05:02:57.175Z,99809.69
2022-12-29T05:06:59.266Z,99807.84
2022-12-29T05:11:01.127Z,99810.42
2022-12-29T05:15:03.931Z,99803.45
2022-12-29T05:19:06.385Z,99790.13
2022-12-29T05:23:11.200Z,99786.19
2022-12-29T05:27:14.303Z,99789.40
2022-12-29T05:31:24.323Z,99792.38
2022-12-29T05:35:26.791Z,99787.52
2022-12-29T05:39:29.513Z,99800.67
2022-12-29T05:43:35.141Z,99807.39
2022-12-29T05:47:53.739Z,99789.77
2022-12-29T05:52:01.781Z,99783.89
2022-12-29T05:56:04.236Z,99777.08
2022-12-29T06:00:08.648Z,99777.21
2022-12-29T06:04:16.527Z,99778.42
2022-12-29T06:08:19.547Z,99785.23
2022-12-29T06:12:23.398Z,99777.31
2022-12-29T06:16:27.279Z,99781.75
2022-12-29T06:20:32.859Z,99771.17
2022-12-29T06:24:34.727Z,99770.48
2022-12-29T06:28:37.047Z,99761.63
2022-12-29T06:32:39.445Z,99765.40
2022-12-29T06:36:43.877Z,99758.63
2022-12-29T06:40:46.255Z,99759.89
2022-12-29T06:45:07.871Z,99758.80
2022-12-29T06:49:09.891Z,99765.79
2022-12-29T06:53:11.774Z,99771.61
2022-12-29T06:57:13.633Z,99772.39
2022-12-29T07:01:16.084Z,99776.77
2022-12-29T07:05:18.521Z,99773.23
2022-12-29T07:09:20.842Z,99763.66
2022-12-29T07:13:22.738Z,99767.63
2022-12-29T07:17:24.703Z,99772.66
2022-12-29T07:21:26.616Z,99773.76
2022-12-29T07:25:29.987Z,99773.38
2022-12-29T07:29:31.919Z,99781.11
2022-12-29T07:33:34.043Z,99772.67
2022-12-29T07:37:35.981Z,99762.79
2022-12-29T07:41:37.870Z,99756.55
2022-12-29T07:45:39.816Z,99756.14
2022-12-29T07:49:44.659Z,99755.17
2022-12-29T07:53:46.841Z,99758.50
2022-12-29T07:57:48.676Z,99771.80
2022-12-29T08:01:51.592Z,99772.84
2022-12-29T08:05:53.951Z,99767.48
2022-12-29T08:09:55.904Z,99767.83
2022-12-29T08:13:57.802Z,99761.71
2022-12-29T08:17:59.811Z,99759.75
2022-12-29T08:22:02.244Z,99755.97
2022-12-29T08:26:06.049Z,99760.88
2022-12-29T08:30:08.648Z,99758.33
2022-12-29T08:34:10.906Z,99747.84
2022-12-29T08:38:12.917Z,99740.23
2022-12-29T08:42:16.176Z,99739.58
2022-12-29T08:46:18.114Z,99742.19
2022-12-29T08:50:20.139Z,99743.41
2022-12-29T08:54:22.160Z,99742.08
2022-12-29T08:58:25.862Z,99739.39
2022-12-29T09:02:27.970Z,99741.14
2022-12-29T09:06:32.624Z,99747.91
2022-12-29T09:10:37.224Z,99753.23
2022-12-29T09:14:39.193Z,99751.02
2022-12-29T09:18:41.197Z,99747.41
2022-12-29T09:22:43.855Z,99747.34
2022-12-29T09:26:47.165Z,99741.89
2022-12-29T09:30:49.913Z,99742.09
2022-12-29T09:34:51.903Z,99744.02
2022-12-29T09:38:55.413Z,99746.54
2022-12-29T09:43:25.075Z,99742.80
2022-12-29T09:47:27.288Z,99731.73
2022-12-29T09:51:29.633Z,99722.84
2022-12-29T09:55:38.668Z,99720.14
2022-12-29T09:59:43.999Z,99715.20
2022-12-29T10:03:55.355Z,99709.33
2022-12-29T10:08:25.369Z,99713.06
2022-12-29T10:13:01.516Z,99705.39
2022-12-29T10:17:33.850Z,99695.72
2022-12-29T10:21:54.333Z,99689.27
2022-12-29T10:25:58.644Z,99681.05
2022-12-29T10:30:03.098Z,99682.70
2022-12-29T10:34:19.852Z,99684.48
2022-12-29T10:39:07.463Z,99680.50
2022-12-29T10:43:43.925Z,99678.61
2022-12-29T10:48:09.682Z,99670.94
2022-12-29T10:52:14.038Z,99678.30
2022-12-29T10:56:28.420Z,99669.97
2022-12-29T11:00:32.381Z,99662.65
2022-12-29T11:04:52.715Z,99661.02
2022-12-29T11:08:59.145Z,99647.67
2022-12-29T11:13:04.292Z,99641.19
2022-12-29T11:17:06.218Z,99638.92
2022-12-29T11:21:28.283Z,99636.67
2022-12-29T11:25:30.557Z,99638.48
2022-12-29T11:29:41.913Z,99630.70
2022-12-29T11:33:43.864Z,99625.73
2022-12-29T11:37:45.835Z,99629.70
2022-12-29T11:41:53.317Z,99634.48
2022-12-29T11:45:57.061Z,99637.40
2022-12-29T11:50:02.770Z,99638.16
2022-12-29T11:54:06.206Z,99646.30
2022-12-29T11:58:16.508Z,99639.63
2022-12-29T12:02:35.826Z,99633.99
2022-12-29T12:06:49.985Z,99632.81
2022-12-29T12:11:09.968Z,99631.55
2022-12-29T12:15:30.650Z,99636.89
2022-12-29T12:19:45.118Z,99642.19
2022-12-29T12:24:15.692Z,99637.46
2022-12-29T12:28:47.114Z,99634.64
2022-12-29T12:33:04.042Z,99635.55
2022-12-29T12:37:43.570Z,99635.15
2022-12-29T12:42:03.869Z,99633.77
2022-12-29T12:46:18.607Z,99629.52
2022-12-29T12:50:29.155Z,99625.39
2022-12-29T12:55:09.571Z,99621.79
2022-12-29T12:59:35.622Z,99625.84
2022-12-29T13:04:06.809Z,99625.52
2022-12-29T13:08:46.630Z,99621.87
2022-12-29T13:13:00.027Z,99625.52
2022-12-29T13:17:10.687Z,99622.70
2022-12-29T13:21:31.424Z,99623.06
2022-12-29T13:25:35.928Z,99619.19
2022-12-29T13:30:11.066Z,99627.33
2022-12-29T13:34:28.088Z,99626.76
2022-12-29T13:38:39.581Z,99619.58
2022-12-29T13:42:42.411Z,99616.12
2022-12-29T13:46:47.180Z,99612.95
2022-12-29T13:50:55.608Z,99610.73
2022-12-29T13:55:06.629Z,99609.57
2022-12-29T13:59:41.134Z,99613.27
2022-12-29T14:03:50.232Z,99617.83
2022-12-29T14:08:04.309Z,99616.23
2022-12-29T14:12:30.896Z,99617.83
2022-12-29T14:16:35.345Z,99621.28
2022-12-29T14:20:39.269Z,99620.17
2022-12-29T14:24:44.144Z,99618.91
2022-12-29T14:28:48.623Z,99613.66
2022-12-29T14:33:13.630Z,99614.50
2022-12-29T14:37:29.325Z,99617.68
2022-12-29T14:41:41.889Z,99617.83
2022-12-29T14:45:53.533Z,99616.84
2022-12-29T14:49:55.591Z,99614.70
2022-12-29T14:53:57.677Z,99621.23
2022-12-29T14:58:10.264Z,99621.36
2022-12-29T15:02:22.967Z,99621.62
2022-12-29T15:06:29.689Z,99617.48
2022-12-29T15:10:44.403Z,99622.86
2022-12-29T15:14:57.760Z,99627.88
2022-12-29T15:19:00.046Z,99629.64
2022-12-29T15:23:10.203Z,99630.02
2022-12-29T15:27:19.122Z,99629.51
2022-12-29T15:31:30.176Z,99627.75
2022-12-29T15:35:36.296Z,99632.30
2022-12-29T15:39:38.198Z,99640.52
2022-12-29T15:44:19.432Z,99643.75
2022-12-29T15:48:27.967Z,99648.39
2022-12-29T15:52:32.521Z,99646.50
2022-12-29T15:56:34.462Z,99649.78
2022-12-29T16:00:38.062Z,99650.06
2022-12-29T16:05:01.610Z,99644.48
2022-12-29T16:09:07.686Z,99639.72
2022-12-29T16:13:15.622Z,99638.80
2022-12-29T16:17:22.295Z,99634.89
2022-12-29T16:21:29.593Z,99636.98
2022-12-29T16:25:37.930Z,99638.70
2022-12-29T16:29:40.412Z,99635.64
2022-12-29T16:33:54.253Z,99640.00
2022-12-29T16:38:21.996Z,99635.22
2022-12-29T16:42:38.200Z,99633.02
2022-12-29T16:46:58.373Z,99634.30
2022-12-29T16:51:05.739Z,99637.74
2022-12-29T16:55:17.371Z,99641.06
2022-12-29T16:59:39.398Z,99646.73
2022-12-29T17:03:48.378Z,99650.66
2022-12-29T17:07:51.670Z,99648.90
2022-12-29T17:12:08.748Z,99641.14
2022-12-29T17:16:12.625Z,99643.71
2022-12-29T17:20:21.715Z,99639.35
2022-12-29T17:24:23.666Z,99639.77
2022-12-29T17:28:29.967Z,99641.45
2022-12-29T17:32:32.787Z,99646.09
2022-12-29T17:36:34.635Z,99653.27
2022-12-29T17:40:36.577Z,99649.66
2022-12-29T17:44:38.477Z,99652.52
2022-12-29T17:48:40.410Z,99653.39
2022-12-29T17:52:46.131Z,99658.06
2022-12-29T17:56:48.619Z,99656.73
2022-12-29T18:00:53.155Z,99659.47
2022-12-29T18:04:57.262Z,99665.77
2022-12-29T18:08:59.091Z,99659.73
2022-12-29T18:13:02.592Z,99663.89
2022-12-29T18:17:12.343Z,99672.73
2022-12-29T18:21:17.690Z,99672.89
2022-12-29T18:25:26.149Z,99665.91
2022-12-29T18:29:28.089Z,99672.21
2022-12-29T18:33:30.066Z,99670.45
2022-12-29T18:37:31.921Z,99669.04
2022-12-29T18:41:33.954Z,99666.52
2022-12-29T18:45:35.872Z,99666.69
2022-12-29T18:49:37.736Z,99663.71
2022-12-29T18:53:39.834Z,99666.77
2022-12-29T18:57:41.998Z,99663.13
2022-12-29T19:01:43.998Z,99662.45
2022-12-29T19:05:47.269Z,99656.11
2022-12-29T19:09:49.102Z,99655.91
2022-12-29T19:13:50.958Z,99653.30
2022-12-29T19:18:32.359Z,99648.81
2022-12-29T19:22:17.079Z,99649.24
2022-12-29T19:26:29.781Z,99650.17
2022-12-29T19:30:32.828Z,99655.69
2022-12-29T19:34:34.641Z,99657.89
2022-12-29T19:38:36.567Z,99660.23
2022-12-29T19:42:38.423Z,99660.20
2022-12-29T19:46:40.412Z,99665.29
2022-12-29T19:50:42.943Z,99670.19
2022-12-29T19:54:44.842Z,99670.88
2022-12-29T19:58:47.723Z,99663.38
2022-12-29T20:02:50.017Z,99662.55
2022-12-29T20:06:52.116Z,99654.31
2022-12-29T20:11:06.979Z,99653.25
2022-12-29T20:15:10.632Z,99646.73
2022-12-29T20:19:12.437Z,99651.69
2022-12-29T20:23:14.527Z,99647.97
2022-12-29T20:27:16.515Z,99643.89
2022-12-29T20:31:25.609Z,99648.65
2022-12-29T20:35:27.577Z,99652.86
2022-12-29T20:39:31.473Z,99651.04
2022-12-29T20:43:33.840Z,99654.77
2022-12-29T20:47:35.743Z,99654.03
2022-12-29T20:52:04.637Z,99653.21
2022-12-29T20:56:05.279Z,99659.11
2022-12-29T21:00:08.130Z,99664.58
2022-12-29T21:04:10.037Z,99663.05
2022-12-29T21:08:11.994Z,99663.66
2022-12-29T21:12:14.505Z,99661.11
2022-12-29T21:16:20.453Z,99661.10
2022-12-29T21:20:29.583Z,99663.54
2022-12-29T21:24:31.579Z,99669.61
2022-12-29T21:28:33.460Z,99670.00
2022-12-29T21:32:35.498Z,99667.44
2022-12-29T21:36:37.516Z,99669.50
2022-12-29T21:40:39.953Z,99674.45
2022-12-29T21:45:00.532Z,99671.02
2022-12-29T21:49:03.916Z,99666.52
2022-12-29T21:53:05.807Z,99668.66
2022-12-29T21:57:09.290Z,99673.16
2022-12-29T22:01:32.388Z,99677.13
2022-12-29T22:05:53.323Z,99675.41
2022-12-29T22:10:13.838Z,99673.08
2022-12-29T22:14:15.858Z,99672.75
2022-12-29T22:18:17.734Z,99671.86
2022-12-29T22:22:19.557Z,99672.25
2022-12-29T22:26:21.495Z,99671.85
2022-12-29T22:30:23.443Z,99675.55
2022-12-29T22:34:25.752Z,99678.04
2022-12-29T22:38:27.681Z,99679.70
2022-12-29T22:42:29.734Z,99683.16
2022-12-29T22:46:31.944Z,99678.13
2022-12-29T22:50:34.370Z,99680.11
2022-12-29T22:54:36.299Z,99681.19
2022-12-29T22:58:42.970Z,99689.69
2022-12-29T23:02:45.077Z,99697.29
2022-12-29T23:06:47.226Z,99698.92
2022-12-29T23:10:49.230Z,99702.39
2022-12-29T23:14:51.094Z,99705.06
2022-12-29T23:18:53.617Z,99707.34
2022-12-29T23:22:55.455Z,99706.58
2022-12-29T23:26:57.353Z,99706.11
2022-12-29T23:30:59.343Z,99702.63
2022-12-29T23:35:01.262Z,99700.47
2022-12-29T23:39:04.980Z,99699.85
2022-12-29T23:43:07.075Z,99704.86
2022-12-29T23:47:09.077Z,99699.75
2022-12-29T23:51:11.437Z,99705.58
2022-12-29T23:55:13.316Z,99706.94
2022-12-29T23:59:15.121Z,99705.83
